createdAt,value
2023-03-15T00:02:08.066Z,5.40
2023-03-15T00:07:10.350Z,5.40
2023-03-15T00:12:12.677Z,5.40
2023-03-15T00:17:16.218Z,5.40
2023-03-15T00:22:18.376Z,5.40
2023-03-15T00:27:20.548Z,5.20
2023-03-15T00:32:24.154Z,5.10
2023-03-15T00:37:26.268Z,4.90
2023-03-15T00:42:29.298Z,4.80
2023-03-15T00:47:33.139Z,4.80
2023-03-15T00:52:36.554Z,4.80
2023-03-15T00:57:38.926Z,4.90
2023-03-15T01:02:42.780Z,4.90
2023-03-15T01:07:45.009Z,5.00
2023-03-15T01:12:47.143Z,5.00
2023-03-15T01:17:50.723Z,5.00
2023-03-15T01:22:53.285Z,5.00
2023-03-15T01:27:55.391Z,5.00
2023-03-15T01:32:59.044Z,5.00
2023-03-15T01:38:01.246Z,5.00
2023-03-15T01:43:15.977Z,5.00
2023-03-15T01:48:22.772Z,5.00
2023-03-15T01:53:27.921Z,5.00
2023-03-15T01:58:30.614Z,5.00
2023-03-15T02:03:37.435Z,5.00
2023-03-15T02:08:44.409Z,5.10
2023-03-15T02:13:49.037Z,5.20
2023-03-15T02:18:52.631Z,5.20
2023-03-15T02:24:04.747Z,5.20
2023-03-15T02:29:08.539Z,5.10
2023-03-15T02:34:10.690Z,5.00
2023-03-15T02:39:16.097Z,4.90
2023-03-15T02:44:23.257Z,4.80
2023-03-15T02:49:29.752Z,4.70
2023-03-15T02:54:31.948Z,4.70
2023-03-15T02:59:35.620Z,4.60
2023-03-15T03:04:38.032Z,4.50
2023-03-15T03:09:40.203Z,4.40
2023-03-15T03:14:43.893Z,4.40
2023-03-15T03:19:46.030Z,4.30
2023-03-15T03:24:48.115Z,4.30
2023-03-15T03:29:51.968Z,4.20
2023-03-15T03:34:54.120Z,4.10
2023-03-15T03:39:56.284Z,4.10
2023-03-15T03:44:59.771Z,4.10
2023-03-15T03:50:01.896Z,4.00
2023-03-15T03:55:04.293Z,4.00
2023-03-15T04:00:12.074Z,4.00
2023-03-15T04:05:14.274Z,4.00
2023-03-15T04:10:16.577Z,3.90
2023-03-15T04:15:20.571Z,3.90
2023-03-15T04:20:22.922Z,3.80
2023-03-15T04:25:24.941Z,3.80
2023-03-15T04:30:29.619Z,3.80
2023-03-15T04:35:34.378Z,3.80
2023-03-15T04:40:36.757Z,3.80
2023-03-15T04:45:40.490Z,3.90
2023-03-15T04:50:42.699Z,3.90
2023-03-15T04:55:44.834Z,3.90
2023-03-15T05:00:49.225Z,4.00
2023-03-15T05:05:51.477Z,3.90
2023-03-15T05:10:53.787Z,4.00
2023-03-15T05:15:57.704Z,4.00
2023-03-15T05:20:59.953Z,4.00
2023-03-15T05:26:02.173Z,3.90
2023-03-15T05:31:05.924Z,3.90
2023-03-15T05:36:08.449Z,3.90
2023-03-15T05:41:10.552Z,3.90
2023-03-15T05:46:14.139Z,3.80
2023-03-15T05:51:16.297Z,3.80
2023-03-15T05:56:18.480Z,3.80
2023-03-15T06:01:22.395Z,3.80
2023-03-15T06:06:24.603Z,3.90
2023-03-15T06:11:27.976Z,4.00
2023-03-15T06:16:31.538Z,4.40
2023-03-15T06:21:34.073Z,4.80
2023-03-15T06:26:36.304Z,5.40
2023-03-15T06:31:39.909Z,6.10
2023-03-15T06:36:42.083Z,6.90
2023-03-15T06:41:44.422Z,7.70
2023-03-15T06:46:47.968Z,8.50
2023-03-15T06:51:50.142Z,9.30
2023-03-15T06:56:52.313Z,10.20
2023-03-15T07:01:55.947Z,11.00
2023-03-15T07:06:58.122Z,11.80
2023-03-15T07:12:00.208Z,12.50
2023-03-15T07:17:03.748Z,13.20
2023-03-15T07:22:06.370Z,13.80
2023-03-15T07:27:14.882Z,14.50
2023-03-15T07:32:19.303Z,15.10
2023-03-15T07:37:21.508Z,15.80
2023-03-15T07:42:23.902Z,16.40
2023-03-15T07:47:28.009Z,17.00
2023-03-15T07:52:30.924Z,17.40
2023-03-15T07:57:33.514Z,17.60
2023-03-15T08:02:37.656Z,18.00
2023-03-15T08:07:42.081Z,18.30
2023-03-15T08:12:45.000Z,18.50
2023-03-15T08:17:49.614Z,18.60
2023-03-15T08:22:52.231Z,18.70
2023-03-15T08:27:54.793Z,18.60
2023-03-15T08:32:58.932Z,18.50
2023-03-15T08:38:01.710Z,18.30
2023-03-15T08:43:04.975Z,17.50
2023-03-15T08:48:09.501Z,16.40
2023-03-15T08:53:14.940Z,15.30
2023-03-15T08:58:18.435Z,14.30
2023-03-15T09:03:24.680Z,13.30
2023-03-15T09:08:27.334Z,12.40
2023-03-15T09:13:29.877Z,11.60
2023-03-15T09:18:34.098Z,10.90
2023-03-15T09:23:37.666Z,10.20
2023-03-15T09:28:40.303Z,9.80
2023-03-15T09:33:44.599Z,9.40
2023-03-15T09:38:46.970Z,9.20
2023-03-15T09:44:09.809Z,8.90
2023-03-15T09:49:20.019Z,8.70
2023-03-15T09:54:28.557Z,8.70
2023-03-15T09:59:35.857Z,9.40
2023-03-15T10:04:43.077Z,10.50
2023-03-15T10:09:46.880Z,11.40
2023-03-15T10:15:01.627Z,11.90
2023-03-15T10:20:07.749Z,12.10
2023-03-15T10:25:16.358Z,11.70
2023-03-15T10:30:21.720Z,11.10
2023-03-15T10:35:26.142Z,10.50
2023-03-15T10:40:43.804Z,10.00
2023-03-15T10:45:57.558Z,9.60
2023-03-15T10:51:07.539Z,9.40
2023-03-15T10:56:20.154Z,9.20
2023-03-15T11:01:30.743Z,9.20
2023-03-15T11:06:44.700Z,9.20
2023-03-15T11:11:54.038Z,9.10
2023-03-15T11:16:59.460Z,8.90
2023-03-15T11:22:03.888Z,8.60
2023-03-15T11:27:16.177Z,8.30
2023-03-15T11:32:24.183Z,8.00
2023-03-15T11:37:35.222Z,7.70
2023-03-15T11:42:49.436Z,7.70
2023-03-15T11:47:56.764Z,8.20
2023-03-15T11:53:07.329Z,8.80
2023-03-15T11:58:33.469Z,9.40
2023-03-15T12:03:40.651Z,9.70
2023-03-15T12:08:52.536Z,10.00
2023-03-15T12:14:05.271Z,10.30
2023-03-15T12:19:17.297Z,10.50
2023-03-15T12:24:26.940Z,10.60
2023-03-15T12:29:31.289Z,10.80
2023-03-15T12:34:52.784Z,11.20
2023-03-15T12:40:26.863Z,11.50
2023-03-15T12:45:49.398Z,11.50
2023-03-15T12:51:36.112Z,11.30
2023-03-15T12:56:47.728Z,11.00
2023-03-15T13:01:53.881Z,11.00
2023-03-15T13:07:18.428Z,11.40
2023-03-15T13:12:37.503Z,12.10
2023-03-15T13:17:49.150Z,12.80
2023-03-15T13:23:04.925Z,13.40
2023-03-15T13:28:23.018Z,13.70
2023-03-15T13:33:33.170Z,13.90
2023-03-15T13:38:41.606Z,14.00
2023-03-15T13:43:51.298Z,14.10
2023-03-15T13:48:56.338Z,14.00
2023-03-15T13:54:04.700Z,13.90
2023-03-15T13:59:12.122Z,13.90
2023-03-15T14:04:40.820Z,13.70
2023-03-15T14:09:44.786Z,13.60
2023-03-15T14:14:59.342Z,13.50
2023-03-15T14:20:09.533Z,13.50
2023-03-15T14:25:46.564Z,13.40
2023-03-15T14:31:00.370Z,13.40
2023-03-15T14:36:10.013Z,13.40
2023-03-15T14:41:35.710Z,13.40
2023-03-15T14:46:39.626Z,13.40
2023-03-15T14:51:43.104Z,13.40
2023-03-15T14:56:49.254Z,13.30
2023-03-15T15:02:04.987Z,13.30
2023-03-15T15:07:07.918Z,13.20
2023-03-15T15:12:14.000Z,13.10
2023-03-15T15:17:19.427Z,13.00
2023-03-15T15:22:43.230Z,12.90
2023-03-15T15:27:48.323Z,12.80
2023-03-15T15:32:54.846Z,12.60
2023-03-15T15:37:57.898Z,12.50
2023-03-15T15:43:00.615Z,12.40
2023-03-15T15:48:08.318Z,12.30
2023-03-15T15:53:16.706Z,12.20
2023-03-15T15:58:21.576Z,12.00
2023-03-15T16:04:02.187Z,11.90
2023-03-15T16:09:27.723Z,11.80
2023-03-15T16:14:31.341Z,11.70
2023-03-15T16:19:36.864Z,11.50
2023-03-15T16:24:41.653Z,11.40
2023-03-15T16:29:46.864Z,11.30
2023-03-15T16:35:07.156Z,11.20
2023-03-15T16:40:26.641Z,11.00
2023-03-15T16:45:32.145Z,10.90
2023-03-15T16:50:36.412Z,10.80
2023-03-15T16:55:38.783Z,10.70
2023-03-15T17:00:40.992Z,10.50
2023-03-15T17:05:46.754Z,10.40
2023-03-15T17:10:49.381Z,10.20
2023-03-15T17:15:51.643Z,10.10
2023-03-15T17:20:55.211Z,9.90
2023-03-15T17:25:58.053Z,9.70
2023-03-15T17:31:20.242Z,9.60
2023-03-15T17:36:29.374Z,9.50
2023-03-15T17:41:34.032Z,9.30
2023-03-15T17:46:36.327Z,9.20
2023-03-15T17:51:40.506Z,9.00
2023-03-15T17:56:42.619Z,8.90
2023-03-15T18:01:44.881Z,8.70
2023-03-15T18:06:48.444Z,8.60
2023-03-15T18:11:50.696Z,8.40
2023-03-15T18:16:52.936Z,8.30
2023-03-15T18:21:56.533Z,8.20
2023-03-15T18:26:58.658Z,8.10
2023-03-15T18:32:00.926Z,7.90
2023-03-15T18:37:04.529Z,7.80
2023-03-15T18:42:06.719Z,7.60
2023-03-15T18:47:08.799Z,7.50
2023-03-15T18:52:14.543Z,7.40
2023-03-15T18:57:16.741Z,7.20
2023-03-15T19:02:18.969Z,7.00
2023-03-15T19:07:22.802Z,6.90
2023-03-15T19:12:25.095Z,6.80
2023-03-15T19:17:27.311Z,6.70
2023-03-15T19:22:30.910Z,6.50
2023-03-15T19:27:33.083Z,6.40
2023-03-15T19:32:35.264Z,6.30
2023-03-15T19:37:38.812Z,6.10
2023-03-15T19:42:41.037Z,6.10
2023-03-15T19:47:43.239Z,6.00
2023-03-15T19:52:46.890Z,5.90
2023-03-15T19:57:49.018Z,5.80
2023-03-15T20:02:51.108Z,5.60
2023-03-15T20:07:54.664Z,5.40
2023-03-15T20:12:56.812Z,5.10
2023-03-15T20:17:59.001Z,5.00
2023-03-15T20:23:02.578Z,4.80
2023-03-15T20:28:04.860Z,4.70
2023-03-15T20:33:07.425Z,4.60
2023-03-15T20:38:11.093Z,4.60
2023-03-15T20:43:13.351Z,4.60
2023-03-15T20:48:15.757Z,4.50
2023-03-15T20:53:19.601Z,4.40
2023-03-15T20:58:21.726Z,4.40
2023-03-15T21:03:23.975Z,4.30
2023-03-15T21:08:27.688Z,4.20
2023-03-15T21:13:32.192Z,4.20
2023-03-15T21:18:35.543Z,4.20
2023-03-15T21:23:39.185Z,4.30
2023-03-15T21:28:41.807Z,4.30
2023-03-15T21:33:43.902Z,4.30
2023-03-15T21:38:47.393Z,4.30
2023-03-15T21:43:55.416Z,4.20
2023-03-15T21:49:00.785Z,4.20
2023-03-15T21:54:06.655Z,4.10
2023-03-15T21:59:09.341Z,4.00
2023-03-15T22:04:11.543Z,3.80
2023-03-15T22:09:15.387Z,3.80
2023-03-15T22:14:17.688Z,3.80
2023-03-15T22:19:19.785Z,3.70
2023-03-15T22:24:23.315Z,3.80
2023-03-15T22:29:25.997Z,3.80
2023-03-15T22:34:28.275Z,3.80
2023-03-15T22:39:32.020Z,3.80
2023-03-15T22:44:34.114Z,3.80
2023-03-15T22:49:36.397Z,3.80
2023-03-15T22:54:39.936Z,3.70
2023-03-15T22:59:42.100Z,3.80
2023-03-15T23:04:44.591Z,3.80
2023-03-15T23:09:48.310Z,3.80
2023-03-15T23:14:50.612Z,3.80
2023-03-15T23:19:52.726Z,3.80
2023-03-15T23:24:56.233Z,3.80
2023-03-15T23:29:58.428Z,3.80
2023-03-15T23:35:00.600Z,3.90
2023-03-15T23:40:05.088Z,3.90
2023-03-15T23:45:08.742Z,3.90
2023-03-15T23:50:12.042Z,4.00
2023-03-15T23:55:15.594Z,4.00
